Portada
METAR-TAF:

METAR-TAF

Aeroports :

Port-Gentil, Gabon

latitud: 00-42S, longitud: 008-45E, altitud: 3 m

Observació

L'informe es va fer fa 55 minuts, a les 22:30 UTC
Vent 9 kt del Sud
Temperatura 25°C
Humitat 83%
Pressió 1016 hPa
Visibilitat: 8000 m
Núvols disperses a una alçada de 1000 ft

METAR: FOOG 032230Z 18009KT 8000 SCT010 25/22 Q1016

Hora: 00:25 (23:25 UTC)

Pronòstic

L'informe es va fer fa 6 hores i 25 minuts, a les 17:00 UTC
Pronòstic vàlid del 03 a les 18 UTC al 04 a les 18 UTC
Vent 10 kt del Sud
Visibilitat 10 km o més
Núvols disperses a una alçada de 1000 ft
Cel ennuvolat a una alçada de 3000 ft

TAF: FOOG 031700Z 0318/0418 19010KT 9999 SCT010 BKN030

Observacions i pronòstics meteorològics de més de 4000 aeroports (METAR i TAF).

Les estacions disponibles són els punts grocs i vermells al mapa.

Posi el ratolí al punt desitjat per veure el nom de l'estació.

Feu clic per veure les observacions i els pronòstics meteorològics.

Per canviar el mapa: feu clic els botons verds amb una creu de color negre per apropar; al botó verd amb un guió per allunyar la imatge; o en les fletxes verdes per a mapes adjacents.


METAR-TAF: